• Join FlightAware (Why Join?)
  • Login
  • US Flag 
06:29AM EDT


 

Airport Tracker/Info


-or-


 

Live Flight TrackerFlight Track Log ✈ AAL1441 ✈ 26-Sep-2013 ✈ KBOS - KMIA

Flight Track Log - Related Links

Times and Time Zones

All times are in EDT time to prevent confusion due to time zone crossing. See the AAL1441 flight status page for this flight to view local times or setup timezone preferences in your user account.

Time Position Orientation Groundspeed Altitude Reporting Facility
EDT Latitude Longitude Course Direction KTS MPH feet Rate Location/Type
08:31AM 42.3667 -70.9667 208° Southwest 175 201 800  Level KA90
08:32AM 42.3667 -70.9000 90° East 221 254 3,000 2,340 Climbing KA90
08:33AM 42.3500 -70.8167 105° East 278 320 5,300 2,580 Climbing KA90
08:34AM 42.0440 -71.2313 197° South  Level Estimated
08:34AM 42.2844 -70.8125 177° South 308 354 7,500  Level Boston Center
08:35AM 41.9376 -71.3057 199° South  Level Estimated
08:35AM 42.2008 -70.7978 173° South 322 371 10,500  Level Boston Center
08:36AM 41.9094 -71.1491 104° East  Level FlightAware Approximate
08:36AM 42.1111 -70.7861 174° South 339 390 12,600  Level Boston Center
08:37AM 41.8034 -71.2244 208° Southwest  Level Estimated
08:37AM 42.0067 -70.7722 174° South 359 413 14,300  Level Boston Center
08:38AM 41.9003 -70.7611 176° South 379 436 17,000 2,820 Climbing Boston Center
08:39AM 41.7881 -70.7806 187° South 403 464 19,900 2,700 Climbing Boston Center
08:40AM 41.6869 -70.8500 207° Southwest 402 463 22,400 2,280 Climbing Boston Center
08:41AM 41.5900 -70.9383 214° Southwest 409 471 24,600 1,860 Climbing Boston Center
08:42AM 41.5017 -71.0375 220° Southwest 421 484 26,600 1,800 Climbing Boston Center
08:43AM 41.4119 -71.1917 232° Southwest 426 490 28,700 1,860 Climbing Boston Center
08:44AM 41.3339 -71.3178 231° Southwest 442 509 30,300 1,680 Climbing Boston Center
08:45AM 41.2519 -71.4489 230° Southwest 448 516 32,100 1,860 Climbing Boston Center
08:46AM 41.1778 -71.5742 232° Southwest 453 521 34,200 1,860 Climbing Boston Center
08:47AM 41.0975 -71.6853 226° Southwest 436 502 35,800 1,320 Climbing Boston Center
08:48AM 41.0189 -71.8100 230° Southwest 436 502 36,900 1,080 Climbing Boston Center
08:49AM 40.9508 -71.9289 233° Southwest 447 514 38,000 540 Climbing Boston Center
08:50AM 40.8658 -72.0586 229° Southwest 447 514 38,000  Level Boston Center
08:51AM 40.7872 -72.1853 231° Southwest 447 514 38,000  Level Boston Center
08:52AM 40.7206 -72.2894 230° Southwest 440 506 38,000  Level Boston Center
08:53AM 40.6372 -72.4072 227° Southwest 440 506 38,000  Level Boston Center
08:54AM 40.5622 -72.5303 231° Southwest 440 506 38,000  Level Boston Center
08:55AM 40.4808 -72.6528 229° Southwest 440 506 38,000  Level Boston Center
08:56AM 40.4078 -72.7725 231° Southwest 435 501 38,000  Level Boston Center
08:57AM 40.3322 -72.8919 230° Southwest 435 501 38,000  Level Boston Center
08:58AM 40.2525 -73.0136 229° Southwest 435 501 38,000  Level Boston Center
08:59AM 40.1747 -73.1325 229° Southwest 435 501 38,000  Level Boston Center
09:01AM 40.0133 -73.3539 226° Southwest 441 507 38,000  Level Washington Center
09:02AM 39.9133 -73.4600 219° Southwest 441 507 38,000  Level Washington Center
09:03AM 39.8233 -73.5625 221° Southwest 436 502 38,000 -60 Level Washington Center
09:04AM 39.7333 -73.6622 220° Southwest 436 502 37,900 -60 Descending Washington Center
09:05AM 39.6433 -73.7617 220° Southwest 431 496 37,900  Level Washington Center
09:06AM 39.5531 -73.8608 220° Southwest 431 496 38,000  Climbing Washington Center
09:07AM 39.4647 -73.9625 222° Southwest 426 490 37,900  Descending Washington Center
09:08AM 39.3725 -74.0614 220° Southwest 426 490 38,000  Climbing Washington Center
09:09AM 39.2797 -74.1625 220° Southwest 433 498 38,000  Level Washington Center
09:10AM 39.1914 -74.2581 220° Southwest 433 498 38,000  Level Washington Center
09:11AM 39.1006 -74.3558 220° Southwest 428 493 38,000  Level Washington Center
09:12AM 39.0100 -74.4589 222° Southwest 428 493 38,000  Level Washington Center
09:13AM 38.9169 -74.5564 219° Southwest 428 493 38,000  Level Washington Center
09:14AM 38.8242 -74.6536 219° Southwest 428 493 38,000  Level Washington Center
09:15AM 38.7353 -74.7506 220° Southwest 428 493 38,000  Level Washington Center
09:16AM 38.6419 -74.8475 219° Southwest 428 493 38,000  Level Washington Center
09:17AM 38.5531 -74.9492 222° Southwest 428 493 38,000  Level Washington Center
09:18AM 38.4594 -75.0403 217° Southwest 428 493 38,000  Level Washington Center
09:19AM 38.3661 -75.1417 220° Southwest 428 493 38,000  Level Washington Center
09:20AM 38.2769 -75.2425 222° Southwest 428 493 38,000  Level Washington Center
09:21AM 38.1833 -75.3381 219° Southwest 434 499 38,000 -60 Level Washington Center
09:22AM 38.0917 -75.4333 219° Southwest 434 499 37,900 -60 Descending Washington Center
09:23AM 37.9894 -75.5128 211° Southwest 434 499 37,900  Level Washington Center
09:24AM 37.8792 -75.5761 204° Southwest 434 499 38,000  Climbing Washington Center
09:25AM 37.7706 -75.6417 206° Southwest 434 499 37,900  Descending Washington Center
09:26AM 37.6600 -75.7047 204° Southwest 434 499 38,000  Climbing Washington Center
09:27AM 37.5536 -75.7700 206° Southwest 434 499 37,900  Descending Washington Center
09:28AM 37.4450 -75.8325 205° Southwest 434 499 38,000  Climbing Washington Center
09:29AM 37.3364 -75.8975 205° Southwest 434 499 38,000  Level Washington Center
09:30AM 37.2278 -75.9597 205° Southwest 434 499 38,000  Level Washington Center
09:31AM 37.1294 -76.0192 206° Southwest 434 499 38,000  Level Washington Center
09:32AM 37.0250 -76.0836 206° Southwest 429 494 38,000  Level Washington Center
09:33AM 36.9081 -76.1425 202° Southwest 442 509 38,000  Level Washington Center
09:34AM 36.7908 -76.2092 204° Southwest 437 503 38,000  Level Washington Center
09:35AM 36.6925 -76.2706 207° Southwest 437 503 38,000 -60 Level Washington Center
09:36AM 36.5794 -76.3214 200° South 437 503 37,900  Descending Washington Center
09:37AM 36.4644 -76.3694 199° South 437 503 38,000  Climbing Washington Center
09:38AM 36.3472 -76.4172 198° South 437 503 37,900  Descending Washington Center
09:39AM 36.2342 -76.4675 200° South 443 510 38,000  Climbing Washington Center
09:40AM 36.1192 -76.5150 198° South 443 510 38,000  Level Washington Center
09:41AM 36.0039 -76.5625 198° South 443 510 38,000  Level Washington Center
09:42AM 35.8908 -76.6100 199° South 443 510 38,000 -60 Level Washington Center
09:43AM 35.7778 -76.6597 200° South 443 510 37,900  Descending Washington Center
09:44AM 35.6647 -76.7067 199° South 443 510 38,000  Climbing Washington Center
09:45AM 35.5517 -76.7536 199° South 443 510 38,000  Level Washington Center
09:46AM 35.4406 -76.8006 199° South 438 504 38,000  Level Washington Center
09:47AM 35.3253 -76.8472 198° South 438 504 38,000  Level Washington Center
09:48AM 35.2142 -76.8961 200° South 433 498 38,000  Level Washington Center
09:49AM 35.0864 -76.9475 198° South 428 493 38,000  Level Washington Center
09:50AM 34.9731 -76.9964 199° South 428 493 38,000  Level Washington Center
09:51AM 34.8619 -77.0425 199° South 428 493 38,000  Level Washington Center
09:52AM 34.7467 -77.0911 199° South 428 493 38,000 -60 Level Washington Center
09:53AM 34.6333 -77.1369 198° South 428 493 37,900 -60 Descending Washington Center
09:54AM 34.5181 -77.1825 198° South 428 493 37,900  Level Washington Center
09:55AM 34.4069 -77.2308 200° South 428 493 38,000  Climbing Washington Center
09:58AM 34.1333 -77.3386 198° South 415 478 37,900  Descending Jacksonville Center
09:59AM 34.0228 -77.3806 197° South 420 483 38,000  Climbing Jacksonville Center
10:00AM 33.9097 -77.4253 198° South 420 483 38,000 -60 Level Jacksonville Center
10:01AM 33.7972 -77.4722 199° South 425 489 37,900  Descending Jacksonville Center
10:02AM 33.6844 -77.5167 198° South 425 489 38,000  Climbing Jacksonville Center
10:03AM 33.5756 -77.5581 198° South 425 489 38,000  Level Jacksonville Center
10:04AM 33.4628 -77.6072 200° South 425 489 38,000  Level Jacksonville Center
10:05AM 33.3500 -77.6511 198° South 425 489 38,000  Level Jacksonville Center
10:06AM 33.2369 -77.6975 199° South 425 489 38,000  Level Jacksonville Center
10:07AM 33.1331 -77.7606 207° Southwest 425 489 38,000  Level Jacksonville Center
10:08AM 33.0294 -77.8261 208° Southwest 420 483 38,000  Level Jacksonville Center
10:09AM 32.9233 -77.8864 205° Southwest 420 483 38,000  Level Jacksonville Center
10:10AM 32.8197 -77.9589 210° Southwest 425 489 38,000 -60 Level Jacksonville Center
10:11AM 32.7139 -78.0289 209° Southwest 425 489 37,900  Descending Jacksonville Center
10:12AM 32.6122 -78.0961 209° Southwest 425 489 38,000  Climbing Jacksonville Center
10:13AM 32.5083 -78.1681 210° Southwest 430 495 38,000 -60 Level Jacksonville Center
10:14AM 32.4044 -78.2375 209° Southwest 430 495 37,900  Descending Jacksonville Center
10:15AM 32.3006 -78.3092 210° Southwest 430 495 38,000  Climbing Jacksonville Center
10:16AM 32.2008 -78.3753 209° Southwest 430 495 38,000 -60 Level Jacksonville Center
10:17AM 32.0922 -78.4322 204° Southwest 430 495 37,900 -60 Descending Jacksonville Center
10:18AM 31.9747 -78.4772 198° South 430 495 37,900  Level Jacksonville Center
10:19AM 31.8547 -78.5097 193° South 435 501 38,000  Climbing Jacksonville Center
10:20AM 31.7408 -78.5372 192° South 435 501 38,000 -60 Level Jacksonville Center
10:21AM 31.6189 -78.5697 193° South 440 506 37,900  Descending Jacksonville Center
10:22AM 31.4986 -78.5922 189° South 446 513 38,000  Climbing Jacksonville Center
10:23AM 31.3786 -78.6197 191° South 452 520 38,000  Level Jacksonville Center
10:24AM 31.2564 -78.6497 192° South 441 507 38,000 -60 Level Jacksonville Center
10:25AM 31.1361 -78.6769 191° South 446 513 37,900 -60 Descending Jacksonville Center
10:26AM 31.0114 -78.6947 187° South 446 513 37,900  Level Jacksonville Center
10:27AM 30.8969 -78.7069 185° South 446 513 37,900  Level Jacksonville Center
10:28AM 30.7783 -78.7122 182° South 446 513 38,000  Climbing Jacksonville Center
10:29AM 30.6550 -78.7081 178° South 446 513 38,000 -120 Level Jacksonville Center
10:29AM 30.5872 -78.7056 178° South 447 514 37,900 -120 Descending Miami Center
10:30AM 30.4642 -78.7253 188° South 458 527 37,900  Level Miami Center
10:31AM 30.3450 -78.7447 188° South 453 521 38,000  Climbing Miami Center
10:32AM 30.2239 -78.7667 189° South 441 507 38,000  Level Miami Center
10:33AM 30.1047 -78.7886 189° South 442 509 38,000  Level Miami Center
10:34AM 29.9958 -78.8225 195° South 435 501 38,000  Level Miami Center
10:35AM 29.8686 -78.8319 184° South 440 506 38,000  Level Miami Center
10:36AM 29.7533 -78.8586 191° South 440 506 38,000  Level Miami Center
10:37AM 29.6281 -78.8683 184° South 443 510 38,000  Level Miami Center
10:38AM 29.5028 -78.8828 186° South 443 510 38,000  Level Miami Center
10:39AM 29.3878 -78.9019 188° South 443 510 38,000  Level Miami Center
10:40AM 29.2625 -78.9164 186° South 443 510 38,000  Level Miami Center
10:41AM 29.1433 -78.9331 187° South 443 510 38,000  Level Miami Center
10:42AM 29.0200 -78.9475 186° South 448 516 38,000  Level Miami Center
10:43AM 28.8967 -78.9617 186° South 448 516 38,000  Level Miami Center
10:44AM 28.7775 -78.9808 188° South 448 516 38,000  Level Miami Center
10:45AM 28.6519 -78.9947 186° South 448 516 38,000  Level Miami Center
10:46AM 28.5328 -79.0114 187° South 448 516 38,000  Level Miami Center
10:47AM 28.4136 -79.0306 188° South 443 510 38,000  Level Miami Center
10:48AM 28.2922 -79.0517 189° South 448 516 38,000 -300 Level Miami Center
10:49AM 28.1706 -79.0894 195° South 443 510 37,500 -720 Descending Miami Center
10:50AM 28.0572 -79.1247 195° South 443 510 36,600 -960 Descending Miami Center
10:51AM 27.9378 -79.1600 195° South 438 504 35,600 -1,020 Descending Miami Center
10:52AM 27.8181 -79.1975 195° South 438 504 34,600 -1,080 Descending Miami Center
10:53AM 27.6858 -79.2369 195° South 438 504 33,500 -1,020 Descending Miami Center
10:54AM 27.5664 -79.2744 196° South 446 513 32,600 -1,260 Descending Miami Center
10:55AM 27.4425 -79.3117 195° South 451 519 31,000 -2,340 Descending Miami Center
10:56AM 27.3311 -79.3467 196° South 456 525 28,000 -3,000 Descending Miami Center
10:57AM 27.2011 -79.3836 194° South 461 531 25,000 -2,940 Descending Miami Center
10:58AM 27.0647 -79.4250 195° South 474 545 22,200 -1,500 Descending Miami Center
10:59AM 26.9450 -79.4619 195° South 457 526 22,000 -960 Descending Miami Center
11:00AM 26.8294 -79.4989 196° South 448 516 20,300 -2,040 Descending Miami Center
11:01AM 26.7161 -79.5311 194° South 427 491 18,000 -2,220 Descending Miami Center
11:02AM 26.6233 -79.5686 200° South 409 471 15,900 -2,220 Descending Miami Center
11:03AM 26.5894 -79.5911 211° Southwest 394 453 15,300 -2,520 Descending Miami Center
11:03AM 26.5239 -79.6361 212° Southwest 386 444 13,400 -2,340 Descending Miami Center
11:03AM 26.5111 -79.6542 232° Southwest 366 421 13,200 -540 Descending Miami Center
11:04AM 26.4767 -79.7114 236° Southwest 350 403 12,900 -540 Descending Miami Center
11:05AM 26.4614 -79.7344 233° Southwest 293 337 12,700 -1,680 Descending Miami Center
11:05AM 26.4289 -79.7961 240° Southwest 311 358 11,200 -1,620 Descending Miami Center
11:06AM 26.4158 -79.8214 240° Southwest 287 330 10,900 -1,380 Descending Miami Center
11:06AM 26.3839 -79.8578 226° Southwest 290 334 9,900 -900 Descending Miami Center
11:07AM 26.3519 -79.8778 209° Southwest 290 334 10,000  Climbing Miami Center
11:07AM 26.3017 -79.8950 197° South 285 328 9,900  Descending Miami Center
11:08AM 26.2678 -79.9125 205° Southwest 292 336 10,000 60 Climbing Miami Center
11:08AM 26.2297 -79.9278 200° South 290 334 10,000  Level Miami Center
11:09AM 26.1942 -79.9431 201° Southwest 288 331 10,000  Level Miami Center
11:09AM 26.1539 -79.9606 201° Southwest 290 334 10,000 -300 Level Miami Center
11:10AM 26.1119 -79.9781 201° Southwest 290 334 9,700 -840 Descending Miami Center
11:10AM 26.0781 -79.9911 199° South 290 334 9,200 -1,440 Descending Miami Center
11:11AM 26.0444 -80.0042 199° South 288 331 8,400 -1,920 Descending Miami Center
11:11AM 26.0022 -80.0214 200° South 295 339 7,300 -1,860 Descending Miami Center
11:12AM 25.9811 -80.0325 205° Southwest 282 325 6,700 -1,920 Descending Miami Center
11:12AM 25.9306 -80.0519 199° South 290 334 5,400 -1,980 Descending Miami Center
11:13AM 25.9031 -80.0650 203° Southwest 268 308 4,700 -1,680 Descending Miami Center
11:14AM 25.8294 -80.0953 200° South 258 297 3,000 -1,080 Descending Miami Center
11:15AM 25.8075 -80.1456 244° Southwest 165 190 2,400 -780 Descending Miami Center
11:16AM 25.8019 -80.1961 263° West 145 167 1,500 -840 Descending Miami Center
11:17AM 25.8031 -80.2378 272° West 140 161 800 -720 Descending Miami Center